sensor_id;sensor_type;location;lat;lon;timestamp;temperature;humidity
13585;DHT22;6863;48.402;9.994;2022-10-16T00:00:57;13.90;99.90
13585;DHT22;6863;48.402;9.994;2022-10-16T00:03:22;13.80;99.90
13585;DHT22;6863;48.402;9.994;2022-10-16T00:05:48;13.80;99.90
13585;DHT22;6863;48.402;9.994;2022-10-16T00:08:14;13.90;99.90
13585;DHT22;6863;48.402;9.994;2022-10-16T00:10:40;13.90;99.90
13585;DHT22;6863;48.402;9.994;2022-10-16T00:13:05;14.00;99.90
13585;DHT22;6863;48.402;9.994;2022-10-16T00:15:36;14.10;99.90
13585;DHT22;6863;48.402;9.994;2022-10-16T00:18:03;14.10;99.90
13585;DHT22;6863;48.402;9.994;2022-10-16T00:20:28;14.10;99.90
13585;DHT22;6863;48.402;9.994;2022-10-16T00:22:56;14.10;99.90
13585;DHT22;6863;48.402;9.994;2022-10-16T00:25:22;14.00;99.90
13585;DHT22;6863;48.402;9.994;2022-10-16T00:27:48;14.00;99.90
13585;DHT22;6863;48.402;9.994;2022-10-16T00:30:14;14.00;99.90
13585;DHT22;6863;48.402;9.994;2022-10-16T00:32:39;14.00;99.90
13585;DHT22;6863;48.402;9.994;2022-10-16T00:35:05;13.90;99.90
13585;DHT22;6863;48.402;9.994;2022-10-16T00:37:31;13.90;99.90
13585;DHT22;6863;48.402;9.994;2022-10-16T00:39:56;13.90;99.90
13585;DHT22;6863;48.402;9.994;2022-10-16T00:42:22;13.80;99.90
13585;DHT22;6863;48.402;9.994;2022-10-16T00:44:51;13.70;99.90
13585;DHT22;6863;48.402;9.994;2022-10-16T00:47:22;13.70;99.90
13585;DHT22;6863;48.402;9.994;2022-10-16T00:49:51;13.60;99.90
13585;DHT22;6863;48.402;9.994;2022-10-16T00:52:19;13.60;99.90
13585;DHT22;6863;48.402;9.994;2022-10-16T00:54:46;13.50;99.90
13585;DHT22;6863;48.402;9.994;2022-10-16T00:57:12;13.50;99.90
13585;DHT22;6863;48.402;9.994;2022-10-16T00:59:40;13.50;99.90
13585;DHT22;6863;48.402;9.994;2022-10-16T01:02:09;13.40;99.90
13585;DHT22;6863;48.402;9.994;2022-10-16T01:04:38;13.40;99.90
13585;DHT22;6863;48.402;9.994;2022-10-16T01:10:03;13.20;99.90
13585;DHT22;6863;48.402;9.994;2022-10-16T01:12:39;13.20;99.90
13585;DHT22;6863;48.402;9.994;2022-10-16T01:15:17;13.10;99.90
13585;DHT22;6863;48.402;9.994;2022-10-16T01:20:29;13.00;99.90
13585;DHT22;6863;48.402;9.994;2022-10-16T01:28:05;13.10;99.90
13585;DHT22;6863;48.402;9.994;2022-10-16T01:30:32;13.20;99.90
13585;DHT22;6863;48.402;9.994;2022-10-16T01:33:30;13.10;99.90
13585;DHT22;6863;48.402;9.994;2022-10-16T01:36:06;13.10;99.90
13585;DHT22;6863;48.402;9.994;2022-10-16T01:38:37;13.20;99.90
13585;DHT22;6863;48.402;9.994;2022-10-16T01:41:31;13.30;99.90
13585;DHT22;6863;48.402;9.994;2022-10-16T01:44:06;13.30;99.90
13585;DHT22;6863;48.402;9.994;2022-10-16T01:46:35;13.30;99.90
13585;DHT22;6863;48.402;9.994;2022-10-16T01:49:03;13.30;99.90
13585;DHT22;6863;48.402;9.994;2022-10-16T01:51:29;13.40;99.90
13585;DHT22;6863;48.402;9.994;2022-10-16T01:53:57;13.30;99.90
13585;DHT22;6863;48.402;9.994;2022-10-16T01:56:25;13.30;99.90
13585;DHT22;6863;48.402;9.994;2022-10-16T01:58:55;13.30;99.90
13585;DHT22;6863;48.402;9.994;2022-10-16T02:01:23;13.30;99.90
13585;DHT22;6863;48.402;9.994;2022-10-16T02:03:53;13.40;99.90
13585;DHT22;6863;48.402;9.994;2022-10-16T02:06:19;13.40;99.90
13585;DHT22;6863;48.402;9.994;2022-10-16T02:08:45;13.40;99.90
13585;DHT22;6863;48.402;9.994;2022-10-16T02:11:11;13.40;99.90
13585;DHT22;6863;48.402;9.994;2022-10-16T02:13:58;13.40;99.90
13585;DHT22;6863;48.402;9.994;2022-10-16T02:16:43;13.40;99.90
13585;DHT22;6863;48.402;9.994;2022-10-16T02:21:55;13.40;99.90
13585;DHT22;6863;48.402;9.994;2022-10-16T02:24:32;13.40;99.90
13585;DHT22;6863;48.402;9.994;2022-10-16T02:27:19;13.40;99.90
13585;DHT22;6863;48.402;9.994;2022-10-16T02:29:50;13.40;99.90
13585;DHT22;6863;48.402;9.994;2022-10-16T02:32:20;13.40;99.90
13585;DHT22;6863;48.402;9.994;2022-10-16T02:34:48;13.40;99.90
13585;DHT22;6863;48.402;9.994;2022-10-16T02:37:15;13.40;99.90
13585;DHT22;6863;48.402;9.994;2022-10-16T02:39:41;13.40;99.90
13585;DHT22;6863;48.402;9.994;2022-10-16T02:42:14;13.40;99.90
13585;DHT22;6863;48.402;9.994;2022-10-16T02:44:40;13.40;99.90
13585;DHT22;6863;48.402;9.994;2022-10-16T02:47:06;13.40;99.90
13585;DHT22;6863;48.402;9.994;2022-10-16T02:49:32;13.40;99.90
13585;DHT22;6863;48.402;9.994;2022-10-16T02:51:57;13.40;99.90
13585;DHT22;6863;48.402;9.994;2022-10-16T02:54:23;13.40;99.90
13585;DHT22;6863;48.402;9.994;2022-10-16T02:56:49;13.40;99.90
13585;DHT22;6863;48.402;9.994;2022-10-16T02:59:15;13.40;99.90
13585;DHT22;6863;48.402;9.994;2022-10-16T03:01:41;13.30;99.90
13585;DHT22;6863;48.402;9.994;2022-10-16T03:04:06;13.30;99.90
13585;DHT22;6863;48.402;9.994;2022-10-16T03:06:32;13.40;99.90
13585;DHT22;6863;48.402;9.994;2022-10-16T03:08:57;13.30;99.90
13585;DHT22;6863;48.402;9.994;2022-10-16T03:11:23;13.30;99.90
13585;DHT22;6863;48.402;9.994;2022-10-16T03:13:48;13.30;99.90
13585;DHT22;6863;48.402;9.994;2022-10-16T03:16:14;13.30;99.90
13585;DHT22;6863;48.402;9.994;2022-10-16T03:18:40;13.30;99.90
13585;DHT22;6863;48.402;9.994;2022-10-16T03:21:05;13.40;99.90
13585;DHT22;6863;48.402;9.994;2022-10-16T03:23:31;13.30;99.90
13585;DHT22;6863;48.402;9.994;2022-10-16T03:25:56;13.30;99.90
13585;DHT22;6863;48.402;9.994;2022-10-16T03:28:22;13.30;99.90
13585;DHT22;6863;48.402;9.994;2022-10-16T03:30:48;13.40;99.90
13585;DHT22;6863;48.402;9.994;2022-10-16T03:33:13;13.30;99.90
13585;DHT22;6863;48.402;9.994;2022-10-16T03:35:39;13.30;99.90
13585;DHT22;6863;48.402;9.994;2022-10-16T03:38:04;13.30;99.90
13585;DHT22;6863;48.402;9.994;2022-10-16T03:40:30;13.30;99.90
13585;DHT22;6863;48.402;9.994;2022-10-16T03:42:57;13.30;99.90
13585;DHT22;6863;48.402;9.994;2022-10-16T03:45:24;13.30;99.90
13585;DHT22;6863;48.402;9.994;2022-10-16T03:47:49;13.20;99.90
13585;DHT22;6863;48.402;9.994;2022-10-16T03:50:15;13.20;99.90
13585;DHT22;6863;48.402;9.994;2022-10-16T03:52:40;13.20;99.90
13585;DHT22;6863;48.402;9.994;2022-10-16T03:55:06;13.20;99.90
13585;DHT22;6863;48.402;9.994;2022-10-16T03:57:33;13.10;99.90
13585;DHT22;6863;48.402;9.994;2022-10-16T03:59:58;13.10;99.90
13585;DHT22;6863;48.402;9.994;2022-10-16T04:02:24;13.00;99.90
13585;DHT22;6863;48.402;9.994;2022-10-16T04:04:50;13.10;99.90
13585;DHT22;6863;48.402;9.994;2022-10-16T04:07:15;13.00;99.90
13585;DHT22;6863;48.402;9.994;2022-10-16T04:09:41;13.00;99.90
13585;DHT22;6863;48.402;9.994;2022-10-16T04:12:07;13.00;99.90
13585;DHT22;6863;48.402;9.994;2022-10-16T04:14:33;13.00;99.90
13585;DHT22;6863;48.402;9.994;2022-10-16T04:16:59;13.00;99.90
13585;DHT22;6863;48.402;9.994;2022-10-16T04:19:24;12.90;99.90
13585;DHT22;6863;48.402;9.994;2022-10-16T04:21:50;12.90;99.90
13585;DHT22;6863;48.402;9.994;2022-10-16T04:24:15;12.90;99.90
13585;DHT22;6863;48.402;9.994;2022-10-16T04:26:41;13.00;99.90
13585;DHT22;6863;48.402;9.994;2022-10-16T04:29:07;13.00;99.90
13585;DHT22;6863;48.402;9.994;2022-10-16T04:31:33;13.00;99.90
13585;DHT22;6863;48.402;9.994;2022-10-16T04:33:58;12.90;99.90
13585;DHT22;6863;48.402;9.994;2022-10-16T04:36:24;12.90;99.90
13585;DHT22;6863;48.402;9.994;2022-10-16T04:38:49;12.80;99.90
13585;DHT22;6863;48.402;9.994;2022-10-16T04:41:15;12.80;99.90
13585;DHT22;6863;48.402;9.994;2022-10-16T04:43:40;12.80;99.90
13585;DHT22;6863;48.402;9.994;2022-10-16T04:46:06;12.80;99.90
13585;DHT22;6863;48.402;9.994;2022-10-16T04:48:32;12.80;99.90
13585;DHT22;6863;48.402;9.994;2022-10-16T04:50:57;12.80;99.90
13585;DHT22;6863;48.402;9.994;2022-10-16T04:53:23;12.80;99.90
13585;DHT22;6863;48.402;9.994;2022-10-16T04:55:49;12.80;99.90
13585;DHT22;6863;48.402;9.994;2022-10-16T04:58:15;12.80;99.90
13585;DHT22;6863;48.402;9.994;2022-10-16T05:00:40;12.80;99.90
13585;DHT22;6863;48.402;9.994;2022-10-16T05:03:06;12.80;99.90
13585;DHT22;6863;48.402;9.994;2022-10-16T05:05:34;12.80;99.90
13585;DHT22;6863;48.402;9.994;2022-10-16T05:08:00;12.80;99.90
13585;DHT22;6863;48.402;9.994;2022-10-16T05:10:26;12.80;99.90
13585;DHT22;6863;48.402;9.994;2022-10-16T05:12:51;12.70;99.90
13585;DHT22;6863;48.402;9.994;2022-10-16T05:15:17;12.70;99.90
13585;DHT22;6863;48.402;9.994;2022-10-16T05:17:44;12.70;99.90
13585;DHT22;6863;48.402;9.994;2022-10-16T05:20:09;12.70;99.90
13585;DHT22;6863;48.402;9.994;2022-10-16T05:22:35;12.70;99.90
13585;DHT22;6863;48.402;9.994;2022-10-16T05:25:01;12.70;99.90
13585;DHT22;6863;48.402;9.994;2022-10-16T05:27:26;12.70;99.90
13585;DHT22;6863;48.402;9.994;2022-10-16T05:29:52;12.60;99.90
13585;DHT22;6863;48.402;9.994;2022-10-16T05:32:18;12.60;99.90
13585;DHT22;6863;48.402;9.994;2022-10-16T05:34:44;12.60;99.90
13585;DHT22;6863;48.402;9.994;2022-10-16T05:37:11;12.60;99.90
13585;DHT22;6863;48.402;9.994;2022-10-16T05:39:38;12.70;99.90
13585;DHT22;6863;48.402;9.994;2022-10-16T05:42:04;12.70;99.90
13585;DHT22;6863;48.402;9.994;2022-10-16T05:44:30;12.70;99.90
13585;DHT22;6863;48.402;9.994;2022-10-16T05:46:55;12.70;99.90
13585;DHT22;6863;48.402;9.994;2022-10-16T05:49:21;12.70;99.90
13585;DHT22;6863;48.402;9.994;2022-10-16T05:51:46;12.70;99.90
13585;DHT22;6863;48.402;9.994;2022-10-16T05:54:12;12.70;99.90
13585;DHT22;6863;48.402;9.994;2022-10-16T05:56:38;12.70;99.90
13585;DHT22;6863;48.402;9.994;2022-10-16T05:59:04;12.70;99.90
13585;DHT22;6863;48.402;9.994;2022-10-16T06:01:30;12.70;99.90
13585;DHT22;6863;48.402;9.994;2022-10-16T06:03:57;12.70;99.90
13585;DHT22;6863;48.402;9.994;2022-10-16T06:06:24;12.70;99.90
13585;DHT22;6863;48.402;9.994;2022-10-16T06:08:54;12.70;99.90
13585;DHT22;6863;48.402;9.994;2022-10-16T06:11:23;12.80;99.90
13585;DHT22;6863;48.402;9.994;2022-10-16T06:13:50;12.80;99.90
13585;DHT22;6863;48.402;9.994;2022-10-16T06:16:16;12.90;99.90
13585;DHT22;6863;48.402;9.994;2022-10-16T06:18:41;12.90;99.90
13585;DHT22;6863;48.402;9.994;2022-10-16T06:21:09;13.00;99.90
13585;DHT22;6863;48.402;9.994;2022-10-16T06:23:35;13.00;99.90
13585;DHT22;6863;48.402;9.994;2022-10-16T06:26:05;13.10;99.90
13585;DHT22;6863;48.402;9.994;2022-10-16T06:28:31;13.20;99.90
13585;DHT22;6863;48.402;9.994;2022-10-16T06:31:00;13.30;99.90
13585;DHT22;6863;48.402;9.994;2022-10-16T06:33:26;13.30;99.90
13585;DHT22;6863;48.402;9.994;2022-10-16T06:35:51;13.40;99.90
13585;DHT22;6863;48.402;9.994;2022-10-16T06:38:17;13.40;99.90
13585;DHT22;6863;48.402;9.994;2022-10-16T06:40:42;13.50;99.90
13585;DHT22;6863;48.402;9.994;2022-10-16T06:43:08;13.60;99.90
13585;DHT22;6863;48.402;9.994;2022-10-16T06:45:34;13.80;99.90
13585;DHT22;6863;48.402;9.994;2022-10-16T06:47:59;14.00;99.90
13585;DHT22;6863;48.402;9.994;2022-10-16T06:50:25;14.20;99.90
13585;DHT22;6863;48.402;9.994;2022-10-16T06:52:50;14.20;99.90
13585;DHT22;6863;48.402;9.994;2022-10-16T06:55:16;14.40;99.90
13585;DHT22;6863;48.402;9.994;2022-10-16T06:57:43;14.50;99.90
13585;DHT22;6863;48.402;9.994;2022-10-16T07:00:09;14.50;99.90
13585;DHT22;6863;48.402;9.994;2022-10-16T07:02:34;14.50;99.90
13585;DHT22;6863;48.402;9.994;2022-10-16T07:05:00;14.60;99.90
13585;DHT22;6863;48.402;9.994;2022-10-16T07:07:26;14.60;99.90
13585;DHT22;6863;48.402;9.994;2022-10-16T07:09:52;14.70;99.90
13585;DHT22;6863;48.402;9.994;2022-10-16T07:12:17;14.70;99.90
13585;DHT22;6863;48.402;9.994;2022-10-16T07:14:43;14.80;99.90
13585;DHT22;6863;48.402;9.994;2022-10-16T07:17:08;15.10;99.90
13585;DHT22;6863;48.402;9.994;2022-10-16T07:19:34;15.20;99.90
13585;DHT22;6863;48.402;9.994;2022-10-16T07:22:00;15.30;99.90
13585;DHT22;6863;48.402;9.994;2022-10-16T07:24:26;15.40;99.90
13585;DHT22;6863;48.402;9.994;2022-10-16T07:26:51;15.60;99.90
13585;DHT22;6863;48.402;9.994;2022-10-16T07:29:20;15.70;99.90
13585;DHT22;6863;48.402;9.994;2022-10-16T07:31:47;15.60;99.90
13585;DHT22;6863;48.402;9.994;2022-10-16T07:34:14;15.60;99.90
13585;DHT22;6863;48.402;9.994;2022-10-16T07:36:40;15.70;99.90
13585;DHT22;6863;48.402;9.994;2022-10-16T07:39:05;15.70;99.90
13585;DHT22;6863;48.402;9.994;2022-10-16T07:41:31;15.80;99.90
13585;DHT22;6863;48.402;9.994;2022-10-16T07:43:58;15.80;99.90
13585;DHT22;6863;48.402;9.994;2022-10-16T07:46:28;15.70;99.90
13585;DHT22;6863;48.402;9.994;2022-10-16T07:48:54;15.70;99.90
13585;DHT22;6863;48.402;9.994;2022-10-16T07:51:21;15.70;99.90
13585;DHT22;6863;48.402;9.994;2022-10-16T07:53:48;15.60;99.90
13585;DHT22;6863;48.402;9.994;2022-10-16T07:56:14;15.80;99.90
13585;DHT22;6863;48.402;9.994;2022-10-16T07:58:40;15.80;99.90
13585;DHT22;6863;48.402;9.994;2022-10-16T08:01:08;15.80;99.90
13585;DHT22;6863;48.402;9.994;2022-10-16T08:03:34;15.90;99.90
13585;DHT22;6863;48.402;9.994;2022-10-16T08:06:00;16.20;99.90
13585;DHT22;6863;48.402;9.994;2022-10-16T08:08:27;16.30;99.90
13585;DHT22;6863;48.402;9.994;2022-10-16T08:10:52;16.30;99.90
13585;DHT22;6863;48.402;9.994;2022-10-16T08:13:18;16.30;99.90
13585;DHT22;6863;48.402;9.994;2022-10-16T08:15:45;16.40;99.90
13585;DHT22;6863;48.402;9.994;2022-10-16T08:18:12;16.40;99.90
13585;DHT22;6863;48.402;9.994;2022-10-16T08:20:38;16.50;99.90
13585;DHT22;6863;48.402;9.994;2022-10-16T08:23:04;16.60;99.90
13585;DHT22;6863;48.402;9.994;2022-10-16T08:25:29;16.60;99.90
13585;DHT22;6863;48.402;9.994;2022-10-16T08:27:55;16.60;99.90
13585;DHT22;6863;48.402;9.994;2022-10-16T08:30:23;16.70;99.90
13585;DHT22;6863;48.402;9.994;2022-10-16T08:32:49;16.80;99.90
13585;DHT22;6863;48.402;9.994;2022-10-16T08:35:15;16.90;99.90
13585;DHT22;6863;48.402;9.994;2022-10-16T08:37:41;17.00;99.90
13585;DHT22;6863;48.402;9.994;2022-10-16T08:40:22;17.00;99.90
13585;DHT22;6863;48.402;9.994;2022-10-16T08:50:37;17.00;99.90
13585;DHT22;6863;48.402;9.994;2022-10-16T08:53:04;16.80;99.90
13585;DHT22;6863;48.402;9.994;2022-10-16T08:58:12;17.00;99.90
13585;DHT22;6863;48.402;9.994;2022-10-16T09:00:38;17.00;99.90
13585;DHT22;6863;48.402;9.994;2022-10-16T09:06:17;17.00;99.90
13585;DHT22;6863;48.402;9.994;2022-10-16T09:14:50;17.00;99.90
13585;DHT22;6863;48.402;9.994;2022-10-16T09:17:30;17.00;99.90
13585;DHT22;6863;48.402;9.994;2022-10-16T09:22:46;17.10;99.90
13585;DHT22;6863;48.402;9.994;2022-10-16T09:25:15;17.20;99.90
13585;DHT22;6863;48.402;9.994;2022-10-16T09:27:44;17.30;99.90
13585;DHT22;6863;48.402;9.994;2022-10-16T09:30:19;17.50;99.90
13585;DHT22;6863;48.402;9.994;2022-10-16T09:32:46;17.40;99.90
13585;DHT22;6863;48.402;9.994;2022-10-16T09:38:01;17.80;99.90
13585;DHT22;6863;48.402;9.994;2022-10-16T09:40:30;18.00;99.90
13585;DHT22;6863;48.402;9.994;2022-10-16T09:43:14;18.30;99.90
13585;DHT22;6863;48.402;9.994;2022-10-16T09:45:42;18.40;99.90
13585;DHT22;6863;48.402;9.994;2022-10-16T09:48:12;18.60;99.90
13585;DHT22;6863;48.402;9.994;2022-10-16T09:50:38;18.90;99.90
13585;DHT22;6863;48.402;9.994;2022-10-16T09:53:14;19.10;99.90
13585;DHT22;6863;48.402;9.994;2022-10-16T09:55:50;19.60;99.90
13585;DHT22;6863;48.402;9.994;2022-10-16T09:58:16;19.90;99.90
13585;DHT22;6863;48.402;9.994;2022-10-16T10:00:49;20.50;99.90
13585;DHT22;6863;48.402;9.994;2022-10-16T10:03:36;21.90;97.80
13585;DHT22;6863;48.402;9.994;2022-10-16T10:06:16;22.10;95.80
13585;DHT22;6863;48.402;9.994;2022-10-16T10:08:53;21.80;96.00
13585;DHT22;6863;48.402;9.994;2022-10-16T10:11:36;21.60;96.20
13585;DHT22;6863;48.402;9.994;2022-10-16T10:19:41;20.80;97.50
13585;DHT22;6863;48.402;9.994;2022-10-16T10:22:18;20.60;97.10
13585;DHT22;6863;48.402;9.994;2022-10-16T10:25:00;20.60;97.60
13585;DHT22;6863;48.402;9.994;2022-10-16T10:36:08;20.30;97.70
13585;DHT22;6863;48.402;9.994;2022-10-16T10:38:51;20.60;97.50
13585;DHT22;6863;48.402;9.994;2022-10-16T10:46:56;20.80;97.00
13585;DHT22;6863;48.402;9.994;2022-10-16T10:58:06;21.10;96.50
13585;DHT22;6863;48.402;9.994;2022-10-16T11:06:19;20.10;97.50
13585;DHT22;6863;48.402;9.994;2022-10-16T11:09:09;20.00;98.10
13585;DHT22;6863;48.402;9.994;2022-10-16T11:11:45;20.30;98.30
13585;DHT22;6863;48.402;9.994;2022-10-16T11:14:19;20.80;97.30
13585;DHT22;6863;48.402;9.994;2022-10-16T11:17:04;21.10;96.50
13585;DHT22;6863;48.402;9.994;2022-10-16T11:19:51;20.90;96.70
13585;DHT22;6863;48.402;9.994;2022-10-16T11:25:13;20.70;97.00
13585;DHT22;6863;48.402;9.994;2022-10-16T11:27:47;20.70;96.60
13585;DHT22;6863;48.402;9.994;2022-10-16T11:30:26;20.80;96.50
13585;DHT22;6863;48.402;9.994;2022-10-16T11:35:44;20.90;96.50
13585;DHT22;6863;48.402;9.994;2022-10-16T11:41:27;22.30;94.30
13585;DHT22;6863;48.402;9.994;2022-10-16T11:47:08;23.40;92.30
13585;DHT22;6863;48.402;9.994;2022-10-16T11:49:38;25.00;90.50
13585;DHT22;6863;48.402;9.994;2022-10-16T11:52:40;27.80;79.30
13585;DHT22;6863;48.402;9.994;2022-10-16T11:55:18;30.50;65.60
13585;DHT22;6863;48.402;9.994;2022-10-16T11:57:52;32.80;56.50
13585;DHT22;6863;48.402;9.994;2022-10-16T12:03:08;33.00;50.80
13585;DHT22;6863;48.402;9.994;2022-10-16T12:08:15;32.70;50.50
13585;DHT22;6863;48.402;9.994;2022-10-16T12:10:44;34.20;48.30
13585;DHT22;6863;48.402;9.994;2022-10-16T12:13:39;35.20;45.20
13585;DHT22;6863;48.402;9.994;2022-10-16T12:18:41;34.10;45.60
13585;DHT22;6863;48.402;9.994;2022-10-16T12:21:08;34.40;45.30
13585;DHT22;6863;48.402;9.994;2022-10-16T12:23:38;35.60;42.80
13585;DHT22;6863;48.402;9.994;2022-10-16T12:26:04;35.50;42.20
13585;DHT22;6863;48.402;9.994;2022-10-16T12:28:32;36.20;41.70
13585;DHT22;6863;48.402;9.994;2022-10-16T12:31:00;36.90;39.90
13585;DHT22;6863;48.402;9.994;2022-10-16T12:33:35;36.90;39.70
13585;DHT22;6863;48.402;9.994;2022-10-16T12:36:11;36.70;39.20
13585;DHT22;6863;48.402;9.994;2022-10-16T12:38:48;37.70;38.90
13585;DHT22;6863;48.402;9.994;2022-10-16T12:41:34;38.40;36.50
13585;DHT22;6863;48.402;9.994;2022-10-16T12:44:05;37.90;37.40
13585;DHT22;6863;48.402;9.994;2022-10-16T12:46:46;37.50;37.60
13585;DHT22;6863;48.402;9.994;2022-10-16T12:51:38;36.50;37.50
13585;DHT22;6863;48.402;9.994;2022-10-16T13:05:25;36.30;38.90
13585;DHT22;6863;48.402;9.994;2022-10-16T13:08:24;36.70;37.90
13585;DHT22;6863;48.402;9.994;2022-10-16T13:11:03;36.70;37.30
13585;DHT22;6863;48.402;9.994;2022-10-16T13:16:50;35.40;38.20
13585;DHT22;6863;48.402;9.994;2022-10-16T13:27:55;37.10;35.60
13585;DHT22;6863;48.402;9.994;2022-10-16T13:30:30;36.50;36.60
13585;DHT22;6863;48.402;9.994;2022-10-16T13:33:02;35.80;36.80
13585;DHT22;6863;48.402;9.994;2022-10-16T13:35:32;36.70;35.60
13585;DHT22;6863;48.402;9.994;2022-10-16T13:43:45;38.10;32.30
13585;DHT22;6863;48.402;9.994;2022-10-16T13:46:18;38.80;31.30
13585;DHT22;6863;48.402;9.994;2022-10-16T13:48:44;37.70;32.80
13585;DHT22;6863;48.402;9.994;2022-10-16T13:51:18;37.40;33.40
13585;DHT22;6863;48.402;9.994;2022-10-16T13:53:45;37.70;32.80
13585;DHT22;6863;48.402;9.994;2022-10-16T13:56:13;36.50;34.40
13585;DHT22;6863;48.402;9.994;2022-10-16T13:58:39;36.60;34.30
13585;DHT22;6863;48.402;9.994;2022-10-16T14:01:16;36.00;34.60
13585;DHT22;6863;48.402;9.994;2022-10-16T14:03:43;35.00;36.00
13585;DHT22;6863;48.402;9.994;2022-10-16T14:06:23;34.40;37.10
13585;DHT22;6863;48.402;9.994;2022-10-16T14:09:00;33.30;39.10
13585;DHT22;6863;48.402;9.994;2022-10-16T14:11:27;33.00;39.70
13585;DHT22;6863;48.402;9.994;2022-10-16T14:13:54;32.40;40.80
13585;DHT22;6863;48.402;9.994;2022-10-16T14:16:22;31.90;41.30
13585;DHT22;6863;48.402;9.994;2022-10-16T14:21:22;32.40;40.30
13585;DHT22;6863;48.402;9.994;2022-10-16T14:23:47;32.30;40.50
13585;DHT22;6863;48.402;9.994;2022-10-16T14:26:16;33.20;39.40
13585;DHT22;6863;48.402;9.994;2022-10-16T14:28:43;34.60;38.40
13585;DHT22;6863;48.402;9.994;2022-10-16T14:31:25;35.80;36.00
13585;DHT22;6863;48.402;9.994;2022-10-16T14:33:51;36.20;35.20
13585;DHT22;6863;48.402;9.994;2022-10-16T14:36:17;37.40;33.10
13585;DHT22;6863;48.402;9.994;2022-10-16T14:41:15;37.50;31.30
13585;DHT22;6863;48.402;9.994;2022-10-16T14:43:42;37.40;31.70
13585;DHT22;6863;48.402;9.994;2022-10-16T14:46:16;37.10;32.50
13585;DHT22;6863;48.402;9.994;2022-10-16T14:48:44;36.10;33.90
13585;DHT22;6863;48.402;9.994;2022-10-16T14:51:17;35.30;34.90
13585;DHT22;6863;48.402;9.994;2022-10-16T14:53:44;33.70;37.70
13585;DHT22;6863;48.402;9.994;2022-10-16T14:56:21;33.50;37.90
13585;DHT22;6863;48.402;9.994;2022-10-16T14:58:48;33.20;38.30
13585;DHT22;6863;48.402;9.994;2022-10-16T15:01:14;33.90;37.10
13585;DHT22;6863;48.402;9.994;2022-10-16T15:03:40;34.80;36.30
13585;DHT22;6863;48.402;9.994;2022-10-16T15:06:11;35.20;35.80
13585;DHT22;6863;48.402;9.994;2022-10-16T15:08:37;34.90;35.30
13585;DHT22;6863;48.402;9.994;2022-10-16T15:11:03;33.80;35.30
13585;DHT22;6863;48.402;9.994;2022-10-16T15:13:28;32.10;38.30
13585;DHT22;6863;48.402;9.994;2022-10-16T15:15:54;31.30;39.70
13585;DHT22;6863;48.402;9.994;2022-10-16T15:18:20;30.40;41.30
13585;DHT22;6863;48.402;9.994;2022-10-16T15:20:50;29.40;42.80
13585;DHT22;6863;48.402;9.994;2022-10-16T15:23:21;28.70;43.80
13585;DHT22;6863;48.402;9.994;2022-10-16T15:25:52;28.00;45.90
13585;DHT22;6863;48.402;9.994;2022-10-16T15:28:19;27.80;46.70
13585;DHT22;6863;48.402;9.994;2022-10-16T15:30:45;27.60;47.00
13585;DHT22;6863;48.402;9.994;2022-10-16T15:33:14;27.40;48.00
13585;DHT22;6863;48.402;9.994;2022-10-16T15:35:40;27.10;49.10
13585;DHT22;6863;48.402;9.994;2022-10-16T15:38:05;27.00;49.90
13585;DHT22;6863;48.402;9.994;2022-10-16T15:40:31;27.00;50.20
13585;DHT22;6863;48.402;9.994;2022-10-16T15:42:56;26.90;50.60
13585;DHT22;6863;48.402;9.994;2022-10-16T15:45:22;26.70;52.10
13585;DHT22;6863;48.402;9.994;2022-10-16T15:47:48;26.40;52.50
13585;DHT22;6863;48.402;9.994;2022-10-16T15:50:15;26.10;53.90
13585;DHT22;6863;48.402;9.994;2022-10-16T15:52:41;25.80;54.50
13585;DHT22;6863;48.402;9.994;2022-10-16T15:55:09;25.40;56.30
13585;DHT22;6863;48.402;9.994;2022-10-16T15:57:36;25.00;57.80
13585;DHT22;6863;48.402;9.994;2022-10-16T16:00:12;24.60;59.50
13585;DHT22;6863;48.402;9.994;2022-10-16T16:02:38;24.20;61.40
13585;DHT22;6863;48.402;9.994;2022-10-16T16:05:04;23.90;62.80
13585;DHT22;6863;48.402;9.994;2022-10-16T16:07:35;23.60;63.80
13585;DHT22;6863;48.402;9.994;2022-10-16T16:10:02;23.20;64.50
13585;DHT22;6863;48.402;9.994;2022-10-16T16:12:28;22.90;66.10
13585;DHT22;6863;48.402;9.994;2022-10-16T16:14:54;22.60;67.80
13585;DHT22;6863;48.402;9.994;2022-10-16T16:17:19;22.40;70.10
13585;DHT22;6863;48.402;9.994;2022-10-16T16:19:45;22.10;71.90
13585;DHT22;6863;48.402;9.994;2022-10-16T16:22:11;21.90;74.30
13585;DHT22;6863;48.402;9.994;2022-10-16T16:24:37;21.60;75.60
13585;DHT22;6863;48.402;9.994;2022-10-16T16:27:02;21.40;79.80
13585;DHT22;6863;48.402;9.994;2022-10-16T16:29:28;21.20;82.20
13585;DHT22;6863;48.402;9.994;2022-10-16T16:31:53;21.00;84.40
13585;DHT22;6863;48.402;9.994;2022-10-16T16:34:24;20.70;86.60
13585;DHT22;6863;48.402;9.994;2022-10-16T16:36:50;20.50;90.20
13585;DHT22;6863;48.402;9.994;2022-10-16T16:39:16;20.30;91.50
13585;DHT22;6863;48.402;9.994;2022-10-16T16:41:41;20.00;92.90
13585;DHT22;6863;48.402;9.994;2022-10-16T16:44:09;19.90;94.00
13585;DHT22;6863;48.402;9.994;2022-10-16T16:46:35;19.80;95.30
13585;DHT22;6863;48.402;9.994;2022-10-16T16:49:02;19.60;96.40
13585;DHT22;6863;48.402;9.994;2022-10-16T16:51:27;19.50;97.30
13585;DHT22;6863;48.402;9.994;2022-10-16T16:53:53;19.30;98.30
13585;DHT22;6863;48.402;9.994;2022-10-16T16:56:21;19.10;98.90
13585;DHT22;6863;48.402;9.994;2022-10-16T16:58:48;18.90;99.50
13585;DHT22;6863;48.402;9.994;2022-10-16T17:01:14;18.70;99.90
13585;DHT22;6863;48.402;9.994;2022-10-16T17:03:42;18.60;99.90
13585;DHT22;6863;48.402;9.994;2022-10-16T17:06:09;18.60;99.90
13585;DHT22;6863;48.402;9.994;2022-10-16T17:08:36;18.40;99.90
13585;DHT22;6863;48.402;9.994;2022-10-16T17:11:03;18.30;99.90
13585;DHT22;6863;48.402;9.994;2022-10-16T17:13:31;18.10;99.90
13585;DHT22;6863;48.402;9.994;2022-10-16T17:15:57;18.10;99.90
13585;DHT22;6863;48.402;9.994;2022-10-16T17:18:23;17.90;99.90
13585;DHT22;6863;48.402;9.994;2022-10-16T17:20:50;17.80;99.90
13585;DHT22;6863;48.402;9.994;2022-10-16T17:23:17;17.70;99.90
13585;DHT22;6863;48.402;9.994;2022-10-16T17:25:43;17.60;99.90
13585;DHT22;6863;48.402;9.994;2022-10-16T17:28:10;17.50;99.90
13585;DHT22;6863;48.402;9.994;2022-10-16T17:30:39;17.40;99.90
13585;DHT22;6863;48.402;9.994;2022-10-16T17:33:07;17.30;99.90
13585;DHT22;6863;48.402;9.994;2022-10-16T17:35:43;17.20;99.90
13585;DHT22;6863;48.402;9.994;2022-10-16T17:38:10;17.20;99.90
13585;DHT22;6863;48.402;9.994;2022-10-16T17:40:37;17.20;99.90
13585;DHT22;6863;48.402;9.994;2022-10-16T17:43:03;17.10;99.90
13585;DHT22;6863;48.402;9.994;2022-10-16T17:45:28;17.00;99.90
13585;DHT22;6863;48.402;9.994;2022-10-16T17:47:54;16.80;99.90
13585;DHT22;6863;48.402;9.994;2022-10-16T17:50:20;16.70;99.90
13585;DHT22;6863;48.402;9.994;2022-10-16T17:52:45;16.70;99.90
13585;DHT22;6863;48.402;9.994;2022-10-16T17:55:11;16.60;99.90
13585;DHT22;6863;48.402;9.994;2022-10-16T17:57:37;16.50;99.90
13585;DHT22;6863;48.402;9.994;2022-10-16T18:00:05;16.20;99.90
13585;DHT22;6863;48.402;9.994;2022-10-16T18:02:31;16.30;99.90